createdAt,value
2023-03-11T00:00:30.315Z,93.93
2023-03-11T00:02:58.864Z,93.49
2023-03-11T00:05:36.703Z,93.03
2023-03-11T00:08:04.169Z,92.79
2023-03-11T00:10:32.062Z,92.64
2023-03-11T00:12:59.763Z,92.70
2023-03-11T00:15:28.054Z,92.38
2023-03-11T00:17:54.979Z,92.40
2023-03-11T00:20:28.872Z,92.61
2023-03-11T00:22:55.553Z,91.79
2023-03-11T00:25:24.212Z,91.98
2023-03-11T00:27:50.671Z,91.34
2023-03-11T00:30:19.449Z,91.79
2023-03-11T00:32:48.361Z,91.18
2023-03-11T00:35:19.195Z,91.53
2023-03-11T00:37:47.178Z,91.21
2023-03-11T00:40:16.805Z,90.70
2023-03-11T00:42:43.754Z,90.42
2023-03-11T00:45:11.148Z,90.20
2023-03-11T00:47:37.620Z,90.11
2023-03-11T00:50:04.916Z,90.14
2023-03-11T00:52:31.273Z,88.96
2023-03-11T00:54:59.326Z,90.17
2023-03-11T00:57:27.781Z,90.12
2023-03-11T00:59:54.406Z,89.51
2023-03-11T01:02:20.861Z,89.90
2023-03-11T01:04:47.350Z,89.78
2023-03-11T01:07:13.909Z,90.33
2023-03-11T01:09:40.220Z,90.30
2023-03-11T01:12:06.607Z,90.23
2023-03-11T01:14:32.901Z,91.18
2023-03-11T01:16:59.326Z,91.24
2023-03-11T01:19:25.802Z,91.14
2023-03-11T01:21:52.147Z,90.85
2023-03-11T01:24:18.545Z,90.37
2023-03-11T01:26:44.933Z,89.62
2023-03-11T01:29:11.325Z,91.72
2023-03-11T01:31:37.701Z,90.74
2023-03-11T01:34:04.021Z,90.35
2023-03-11T01:36:30.363Z,91.63
2023-03-11T01:38:56.728Z,91.50
2023-03-11T01:41:23.228Z,91.21
2023-03-11T01:43:54.603Z,90.54
2023-03-11T01:46:33.120Z,91.62
2023-03-11T01:49:01.898Z,91.42
2023-03-11T01:51:35.694Z,91.67
2023-03-11T01:54:16.505Z,91.11
2023-03-11T01:56:43.068Z,91.63
2023-03-11T01:59:14.127Z,91.52
2023-03-11T02:01:52.594Z,89.94
2023-03-11T02:04:21.053Z,91.10
2023-03-11T02:06:47.498Z,92.84
2023-03-11T02:09:13.831Z,90.83
2023-03-11T02:11:40.217Z,92.05
2023-03-11T02:14:08.902Z,91.30
2023-03-11T02:16:35.332Z,90.16
2023-03-11T02:19:24.023Z,90.30
2023-03-11T02:21:50.890Z,90.69
2023-03-11T02:24:59.587Z,90.32
2023-03-11T02:27:27.567Z,90.10
2023-03-11T02:29:56.659Z,89.58
2023-03-11T02:32:23.161Z,90.00
2023-03-11T02:34:49.760Z,90.71
2023-03-11T02:37:17.401Z,90.56
2023-03-11T02:39:49.907Z,90.41
2023-03-11T02:42:28.606Z,89.87
2023-03-11T02:45:03.087Z,91.38
2023-03-11T02:47:29.461Z,90.66
2023-03-11T02:49:56.939Z,89.86
2023-03-11T02:52:26.106Z,90.95
2023-03-11T02:54:52.713Z,90.05
2023-03-11T02:57:19.145Z,90.08
2023-03-11T02:59:45.476Z,90.73
2023-03-11T03:02:11.815Z,89.68
2023-03-11T03:04:38.164Z,90.07
2023-03-11T03:07:04.683Z,89.90
2023-03-11T03:09:31.383Z,91.19
2023-03-11T03:11:57.802Z,91.06
2023-03-11T03:14:24.133Z,90.11
2023-03-11T03:16:50.632Z,89.16
2023-03-11T03:19:17.058Z,90.17
2023-03-11T03:21:43.433Z,90.15
2023-03-11T03:24:09.790Z,89.99
2023-03-11T03:26:37.233Z,90.28
2023-03-11T03:29:05.106Z,91.00
2023-03-11T03:31:31.892Z,90.32
2023-03-11T03:33:58.432Z,90.09
2023-03-11T03:36:24.886Z,91.61
2023-03-11T03:38:59.407Z,91.14
2023-03-11T03:41:25.749Z,91.80
2023-03-11T03:43:52.624Z,92.07
2023-03-11T03:46:19.066Z,91.50
2023-03-11T03:48:45.421Z,91.04
2023-03-11T03:51:12.982Z,90.75
2023-03-11T03:53:39.542Z,91.00
2023-03-11T03:56:08.576Z,92.45
2023-03-11T03:58:35.392Z,90.91
2023-03-11T04:01:02.119Z,90.57
2023-03-11T04:03:28.824Z,91.68
2023-03-11T04:06:04.849Z,91.82
2023-03-11T04:08:31.136Z,91.70
2023-03-11T04:10:58.061Z,91.66
2023-03-11T04:13:24.526Z,89.45
2023-03-11T04:15:50.849Z,89.66
2023-03-11T04:18:17.264Z,89.82
2023-03-11T04:20:43.688Z,88.63
2023-03-11T04:23:10.095Z,88.79
2023-03-11T04:25:36.466Z,88.89
2023-03-11T04:28:02.849Z,89.26
2023-03-11T04:30:29.302Z,91.32
2023-03-11T04:32:55.749Z,89.14
2023-03-11T04:35:22.143Z,90.70
2023-03-11T04:37:48.495Z,89.80
2023-03-11T04:40:15.236Z,88.62
2023-03-11T04:42:41.761Z,88.13
2023-03-11T04:45:08.906Z,88.92
2023-03-11T04:47:35.276Z,90.87
2023-03-11T04:50:01.746Z,89.91
2023-03-11T04:52:28.124Z,90.80
2023-03-11T04:54:54.642Z,91.14
2023-03-11T04:57:21.598Z,90.91
2023-03-11T04:59:47.988Z,91.71
2023-03-11T05:02:14.556Z,90.19
2023-03-11T05:04:41.075Z,91.24
2023-03-11T05:07:07.605Z,90.04
2023-03-11T05:09:35.366Z,91.68
2023-03-11T05:12:02.014Z,91.85
2023-03-11T05:14:28.409Z,92.12
2023-03-11T05:16:54.828Z,93.64
2023-03-11T05:19:34.917Z,92.57
2023-03-11T05:22:03.371Z,93.11
2023-03-11T05:24:30.308Z,94.12
2023-03-11T05:26:56.852Z,93.73
2023-03-11T05:29:24.401Z,93.11
2023-03-11T05:31:51.592Z,93.64
2023-03-11T05:34:18.131Z,93.63
2023-03-11T05:36:45.339Z,92.39
2023-03-11T05:39:11.903Z,93.67
2023-03-11T05:41:38.344Z,92.29
2023-03-11T05:44:04.768Z,92.99
2023-03-11T05:46:32.201Z,93.46
2023-03-11T05:49:01.593Z,92.23
2023-03-11T05:51:28.396Z,92.94
2023-03-11T05:53:54.996Z,91.73
2023-03-11T05:56:23.173Z,91.11
2023-03-11T05:58:50.175Z,91.40
2023-03-11T06:01:19.245Z,92.13
2023-03-11T06:03:45.753Z,92.04
2023-03-11T06:06:14.007Z,91.96
2023-03-11T06:08:45.880Z,92.33
2023-03-11T06:11:13.370Z,92.37
2023-03-11T06:13:39.784Z,93.01
2023-03-11T06:16:07.192Z,91.76
2023-03-11T06:18:33.979Z,92.77
2023-03-11T06:21:01.717Z,92.32
2023-03-11T06:23:28.833Z,91.05
2023-03-11T06:25:59.036Z,92.15
2023-03-11T06:28:26.218Z,92.34
2023-03-11T06:30:53.582Z,93.32
2023-03-11T06:33:19.973Z,93.85
2023-03-11T06:35:56.838Z,94.12
2023-03-11T06:38:23.246Z,93.39
2023-03-11T06:40:49.632Z,94.05
2023-03-11T06:43:16.120Z,94.22
2023-03-11T06:45:42.500Z,94.09
2023-03-11T06:48:08.917Z,94.06
2023-03-11T06:50:35.348Z,94.95
2023-03-11T06:53:02.894Z,93.19
2023-03-11T06:55:29.279Z,93.74
2023-03-11T06:57:55.648Z,93.81
2023-03-11T07:00:22.114Z,94.38
2023-03-11T07:02:49.088Z,94.12
2023-03-11T07:05:15.480Z,94.16
2023-03-11T07:07:41.882Z,94.42
2023-03-11T07:10:09.090Z,93.80
2023-03-11T07:12:35.768Z,92.92
2023-03-11T07:15:02.301Z,92.06
2023-03-11T07:17:28.944Z,89.64
2023-03-11T07:19:55.478Z,87.67
2023-03-11T07:22:21.871Z,88.31
2023-03-11T07:24:49.300Z,87.35
2023-03-11T07:27:16.204Z,87.02
2023-03-11T07:29:42.591Z,86.86
2023-03-11T07:32:09.339Z,85.05
2023-03-11T07:34:36.056Z,84.74
2023-03-11T07:37:02.440Z,83.10
2023-03-11T07:39:28.843Z,84.34
2023-03-11T07:41:55.240Z,82.24
2023-03-11T07:44:21.574Z,82.04
2023-03-11T07:46:48.016Z,83.37
2023-03-11T07:49:14.427Z,82.13
2023-03-11T07:51:42.422Z,83.36
2023-03-11T07:54:11.338Z,81.72
2023-03-11T07:56:38.262Z,80.33
2023-03-11T07:59:05.487Z,80.51
2023-03-11T08:01:36.512Z,78.99
2023-03-11T08:04:06.166Z,79.22
2023-03-11T08:06:34.796Z,77.55
2023-03-11T08:09:04.930Z,77.69
2023-03-11T08:11:32.218Z,76.32
2023-03-11T08:13:59.464Z,73.88
2023-03-11T08:16:26.232Z,72.23
2023-03-11T08:18:52.862Z,72.27
2023-03-11T08:21:31.697Z,70.71
2023-03-11T08:24:00.349Z,69.99
2023-03-11T08:26:26.985Z,70.35
2023-03-11T08:28:54.766Z,70.33
2023-03-11T08:31:26.664Z,68.93
2023-03-11T08:33:57.328Z,67.24
2023-03-11T08:36:24.275Z,67.56
2023-03-11T08:38:50.752Z,65.10
2023-03-11T08:41:17.285Z,65.36
2023-03-11T08:43:44.449Z,65.83
2023-03-11T08:46:25.756Z,64.18
2023-03-11T08:48:52.990Z,62.01
2023-03-11T08:51:19.956Z,62.24
2023-03-11T08:53:46.851Z,61.79
2023-03-11T08:56:13.327Z,61.51
2023-03-11T08:58:39.932Z,57.91
2023-03-11T09:01:09.014Z,58.35
2023-03-11T09:03:36.073Z,57.09
2023-03-11T09:06:05.977Z,57.39
2023-03-11T09:08:33.136Z,55.08
2023-03-11T09:10:59.750Z,54.41
2023-03-11T09:13:26.362Z,55.37
2023-03-11T09:15:53.537Z,52.25
2023-03-11T09:18:20.527Z,53.05
2023-03-11T09:20:47.072Z,51.24
2023-03-11T09:23:15.641Z,50.14
2023-03-11T09:25:42.405Z,47.29
2023-03-11T09:28:08.882Z,50.05
2023-03-11T09:30:36.006Z,48.14
2023-03-11T09:33:02.398Z,46.70
2023-03-11T09:35:28.822Z,48.58
2023-03-11T09:37:55.260Z,47.82
2023-03-11T09:40:23.512Z,44.70
2023-03-11T09:43:08.779Z,45.83
2023-03-11T09:45:42.523Z,49.31
2023-03-11T09:48:29.379Z,51.87
2023-03-11T09:51:03.090Z,51.35
2023-03-11T09:53:40.682Z,55.17
2023-03-11T09:56:10.244Z,52.20
2023-03-11T09:58:50.695Z,53.29
2023-03-11T10:01:33.186Z,51.02
2023-03-11T10:04:36.891Z,45.91
2023-03-11T10:07:12.222Z,43.26
2023-03-11T10:09:59.031Z,41.24
2023-03-11T10:12:34.423Z,41.50
2023-03-11T10:15:19.690Z,45.97
2023-03-11T10:18:14.141Z,44.67
2023-03-11T10:21:05.781Z,44.35
2023-03-11T10:24:14.371Z,41.62
2023-03-11T10:26:48.579Z,40.15
2023-03-11T10:29:28.858Z,38.22
2023-03-11T10:32:02.430Z,39.79
2023-03-11T10:34:38.245Z,39.98
2023-03-11T10:37:18.771Z,37.50
2023-03-11T10:39:48.226Z,35.29
2023-03-11T10:42:25.462Z,35.99
2023-03-11T10:44:52.704Z,39.63
2023-03-11T10:47:25.558Z,41.28
2023-03-11T10:49:52.626Z,43.82
2023-03-11T10:52:19.939Z,44.32
2023-03-11T10:54:48.469Z,44.38
2023-03-11T10:57:34.064Z,43.52
2023-03-11T11:00:01.459Z,44.98
2023-03-11T11:02:38.924Z,43.92
2023-03-11T11:05:23.106Z,45.31
2023-03-11T11:07:53.137Z,45.96
2023-03-11T11:10:28.227Z,46.99
2023-03-11T11:13:00.804Z,48.26
2023-03-11T11:15:33.030Z,48.63
2023-03-11T11:18:02.838Z,47.96
2023-03-11T11:20:31.666Z,46.68
2023-03-11T11:23:01.534Z,48.09
2023-03-11T11:25:32.933Z,47.65
2023-03-11T11:28:15.447Z,46.73
2023-03-11T11:30:55.429Z,47.20
2023-03-11T11:33:40.260Z,46.68
2023-03-11T11:36:15.049Z,45.35
2023-03-11T11:38:41.916Z,47.40
2023-03-11T11:41:22.032Z,47.91
2023-03-11T11:43:55.772Z,45.21
2023-03-11T11:46:31.423Z,42.73
2023-03-11T11:49:28.670Z,44.10
2023-03-11T11:52:16.312Z,43.03
2023-03-11T11:54:52.847Z,42.80
2023-03-11T11:57:22.063Z,43.12
2023-03-11T11:59:48.898Z,42.85
2023-03-11T12:02:33.300Z,43.39
2023-03-11T12:05:15.171Z,43.31
2023-03-11T12:07:58.122Z,42.71
2023-03-11T12:10:42.807Z,42.41
2023-03-11T12:13:21.243Z,42.96
2023-03-11T12:15:57.976Z,40.28
2023-03-11T12:18:40.287Z,38.37
2023-03-11T12:21:34.625Z,38.68
2023-03-11T12:24:40.398Z,38.76
2023-03-11T12:27:23.007Z,39.99
2023-03-11T12:29:54.942Z,41.04
2023-03-11T12:32:49.170Z,40.96
2023-03-11T12:35:27.713Z,41.45
2023-03-11T12:38:02.143Z,44.89
2023-03-11T12:41:01.362Z,44.88
2023-03-11T12:43:47.661Z,42.75
2023-03-11T12:46:19.555Z,43.33
2023-03-11T12:48:51.050Z,43.76
2023-03-11T12:51:26.615Z,44.54
2023-03-11T12:53:55.358Z,43.44
2023-03-11T12:56:44.028Z,42.99
2023-03-11T12:59:21.945Z,41.61
2023-03-11T13:02:09.549Z,39.95
2023-03-11T13:05:03.336Z,39.27
2023-03-11T13:07:52.155Z,36.09
2023-03-11T13:10:38.371Z,37.45
2023-03-11T13:13:39.432Z,36.50
2023-03-11T13:16:28.841Z,34.54
2023-03-11T13:19:26.972Z,33.87
2023-03-11T13:21:59.550Z,34.19
2023-03-11T13:24:26.070Z,33.08
2023-03-11T13:26:58.654Z,32.73
2023-03-11T13:29:45.278Z,32.48
2023-03-11T13:32:50.279Z,33.51
2023-03-11T13:35:35.211Z,33.41
2023-03-11T13:38:39.150Z,34.58
2023-03-11T13:41:16.283Z,36.01
2023-03-11T13:43:48.733Z,36.69
2023-03-11T13:46:30.348Z,33.01
2023-03-11T13:49:15.221Z,32.88
2023-03-11T13:51:46.590Z,33.03
2023-03-11T13:54:17.732Z,33.04
2023-03-11T13:56:49.129Z,33.20
2023-03-11T13:59:23.157Z,32.49
2023-03-11T14:01:55.951Z,32.79
2023-03-11T14:04:30.053Z,34.61
2023-03-11T14:06:56.510Z,33.73
2023-03-11T14:09:25.380Z,32.50
2023-03-11T14:11:54.726Z,31.22
2023-03-11T14:14:44.204Z,33.25
2023-03-11T14:17:16.179Z,32.51
2023-03-11T14:19:43.597Z,33.86
2023-03-11T14:22:10.973Z,34.10
2023-03-11T14:24:39.008Z,33.51
2023-03-11T14:27:09.496Z,34.88
2023-03-11T14:29:43.668Z,36.00
2023-03-11T14:32:33.266Z,37.96
2023-03-11T14:35:00.409Z,39.31
2023-03-11T14:37:35.792Z,40.95
2023-03-11T14:40:02.863Z,42.47
2023-03-11T14:42:39.919Z,40.57
2023-03-11T14:45:15.123Z,40.88
2023-03-11T14:47:51.185Z,39.22
2023-03-11T14:50:20.942Z,39.99
2023-03-11T14:53:13.822Z,41.43
2023-03-11T14:55:51.039Z,40.04
2023-03-11T14:58:37.231Z,41.46
2023-03-11T15:01:17.183Z,42.42
2023-03-11T15:03:50.216Z,43.25
2023-03-11T15:06:19.597Z,43.03
2023-03-11T15:08:55.687Z,43.07
2023-03-11T15:11:25.131Z,43.28
2023-03-11T15:13:53.285Z,41.01
2023-03-11T15:16:32.899Z,41.03
2023-03-11T15:19:01.813Z,42.74
2023-03-11T15:21:29.966Z,40.98
2023-03-11T15:24:06.510Z,42.61
2023-03-11T15:26:35.225Z,42.86
2023-03-11T15:29:15.395Z,44.52
2023-03-11T15:31:44.844Z,44.36
2023-03-11T15:34:25.030Z,42.18
2023-03-11T15:36:51.438Z,42.86
2023-03-11T15:39:28.792Z,43.13
2023-03-11T15:42:02.024Z,42.34
2023-03-11T15:44:51.284Z,43.78
2023-03-11T15:47:20.178Z,41.15
2023-03-11T15:49:46.909Z,41.60
2023-03-11T15:52:13.435Z,41.87
2023-03-11T15:54:40.126Z,42.43
2023-03-11T15:57:10.615Z,43.13
2023-03-11T15:59:38.506Z,43.16
2023-03-11T16:02:20.751Z,42.54
2023-03-11T16:04:47.323Z,43.21
2023-03-11T16:07:13.904Z,44.39
2023-03-11T16:09:40.417Z,42.47
2023-03-11T16:12:23.352Z,43.67
2023-03-11T16:14:50.392Z,43.33
2023-03-11T16:17:18.706Z,44.64
2023-03-11T16:19:47.434Z,43.67
2023-03-11T16:22:19.932Z,44.10
2023-03-11T16:24:49.876Z,46.67
2023-03-11T16:27:17.995Z,46.70
2023-03-11T16:29:47.476Z,47.10
2023-03-11T16:32:13.964Z,48.16
2023-03-11T16:34:40.385Z,47.57
2023-03-11T16:37:08.080Z,47.23
2023-03-11T16:39:35.052Z,47.46
2023-03-11T16:42:01.937Z,48.77
2023-03-11T16:44:28.374Z,48.91
2023-03-11T16:46:54.839Z,49.34
2023-03-11T16:49:21.467Z,47.98
2023-03-11T16:51:47.888Z,48.11
2023-03-11T16:54:14.230Z,47.93
2023-03-11T16:56:41.909Z,50.37
2023-03-11T16:59:08.723Z,48.94
2023-03-11T17:01:38.488Z,52.43
2023-03-11T17:04:06.872Z,48.84
2023-03-11T17:06:34.256Z,52.56
2023-03-11T17:09:00.693Z,50.28
2023-03-11T17:11:29.483Z,55.42
2023-03-11T17:14:06.332Z,50.44
2023-03-11T17:16:40.283Z,52.41
2023-03-11T17:19:06.760Z,51.85
2023-03-11T17:21:33.266Z,52.90
2023-03-11T17:23:59.649Z,51.26
2023-03-11T17:26:27.651Z,54.74
2023-03-11T17:28:54.133Z,54.50
2023-03-11T17:31:20.681Z,53.93
2023-03-11T17:33:47.411Z,53.11
2023-03-11T17:36:16.255Z,54.13
2023-03-11T17:38:43.815Z,56.59
2023-03-11T17:41:12.666Z,60.89
2023-03-11T17:43:39.494Z,63.84
2023-03-11T17:46:14.315Z,65.57
2023-03-11T17:48:42.082Z,65.24
2023-03-11T17:51:10.790Z,66.83
2023-03-11T17:53:38.776Z,68.63
2023-03-11T17:56:06.692Z,68.90
2023-03-11T17:58:33.578Z,69.83
2023-03-11T18:01:04.133Z,70.79
2023-03-11T18:03:30.505Z,71.38
2023-03-11T18:06:02.289Z,72.71
2023-03-11T18:08:29.601Z,73.02
2023-03-11T18:11:01.963Z,74.34
2023-03-11T18:13:28.611Z,74.03
2023-03-11T18:16:00.176Z,73.62
2023-03-11T18:18:27.007Z,74.19
2023-03-11T18:20:53.471Z,74.56
2023-03-11T18:23:19.961Z,74.99
2023-03-11T18:25:51.696Z,75.15
2023-03-11T18:28:18.195Z,74.86
2023-03-11T18:30:44.579Z,75.08
2023-03-11T18:33:10.918Z,75.44
2023-03-11T18:35:37.307Z,75.26
2023-03-11T18:38:03.713Z,75.84
2023-03-11T18:40:30.116Z,75.76
2023-03-11T18:42:56.460Z,76.52
2023-03-11T18:45:22.897Z,77.15
2023-03-11T18:47:49.371Z,76.48
2023-03-11T18:50:15.916Z,76.48
2023-03-11T18:52:42.241Z,76.02
2023-03-11T18:55:08.836Z,76.39
2023-03-11T18:57:35.227Z,77.51
2023-03-11T19:00:01.911Z,77.23
2023-03-11T19:02:28.355Z,77.52
2023-03-11T19:04:54.829Z,77.16
2023-03-11T19:07:22.502Z,78.51
2023-03-11T19:09:49.390Z,78.21
2023-03-11T19:12:15.816Z,79.49
2023-03-11T19:14:42.267Z,79.47
2023-03-11T19:17:08.805Z,79.05
2023-03-11T19:19:35.240Z,79.36
2023-03-11T19:22:01.594Z,79.47
2023-03-11T19:24:27.979Z,79.30
2023-03-11T19:26:54.361Z,79.99
2023-03-11T19:29:23.654Z,79.59
2023-03-11T19:31:50.458Z,79.70
2023-03-11T19:34:16.837Z,80.73
2023-03-11T19:36:43.243Z,81.49
2023-03-11T19:39:09.628Z,81.28
2023-03-11T19:41:36.049Z,81.06
2023-03-11T19:44:04.036Z,81.28
2023-03-11T19:46:33.291Z,82.01
2023-03-11T19:49:00.047Z,82.40
2023-03-11T19:51:30.472Z,83.42
2023-03-11T19:53:59.473Z,83.86
2023-03-11T19:56:27.560Z,83.26
2023-03-11T19:58:54.099Z,83.10
2023-03-11T20:01:21.092Z,83.72
2023-03-11T20:03:47.601Z,84.23
2023-03-11T20:06:16.437Z,83.42
2023-03-11T20:08:43.661Z,84.05
2023-03-11T20:11:10.197Z,85.00
2023-03-11T20:13:38.020Z,85.83
2023-03-11T20:16:10.627Z,85.80
2023-03-11T20:18:37.128Z,85.22
2023-03-11T20:21:08.992Z,84.78
2023-03-11T20:23:36.237Z,84.38
2023-03-11T20:26:11.918Z,84.93
2023-03-11T20:28:39.300Z,85.41
2023-03-11T20:31:18.024Z,85.69
2023-03-11T20:33:44.526Z,85.33
2023-03-11T20:36:13.671Z,85.58
2023-03-11T20:38:40.973Z,86.53
2023-03-11T20:41:09.534Z,86.08
2023-03-11T20:43:37.592Z,85.20
2023-03-11T20:46:05.354Z,86.09
2023-03-11T20:48:32.633Z,85.76
2023-03-11T20:51:01.272Z,86.46
2023-03-11T20:53:29.637Z,86.49
2023-03-11T20:55:58.280Z,86.37
2023-03-11T20:58:24.722Z,86.28
2023-03-11T21:00:51.457Z,86.76
2023-03-11T21:03:19.347Z,86.38
2023-03-11T21:05:45.821Z,86.51
2023-03-11T21:08:12.534Z,86.50
2023-03-11T21:10:39.238Z,86.40
2023-03-11T21:13:06.270Z,85.92
2023-03-11T21:15:34.713Z,86.73
2023-03-11T21:18:01.231Z,86.94
2023-03-11T21:20:27.678Z,86.91
2023-03-11T21:22:54.129Z,87.28
2023-03-11T21:25:20.577Z,88.08
2023-03-11T21:27:46.960Z,87.14
2023-03-11T21:30:13.863Z,87.37
2023-03-11T21:32:40.507Z,87.45
2023-03-11T21:35:07.297Z,87.40
2023-03-11T21:37:33.833Z,87.10
2023-03-11T21:40:00.367Z,87.21
2023-03-11T21:42:29.332Z,87.97
2023-03-11T21:44:55.923Z,87.42
2023-03-11T21:47:22.428Z,87.55
2023-03-11T21:49:48.942Z,87.46
2023-03-11T21:52:15.420Z,87.70
2023-03-11T21:54:41.953Z,87.51
2023-03-11T21:57:08.475Z,87.67
2023-03-11T21:59:34.898Z,87.86
2023-03-11T22:02:03.169Z,87.95
2023-03-11T22:04:30.978Z,88.03
2023-03-11T22:06:57.684Z,88.44
2023-03-11T22:09:25.681Z,87.94
2023-03-11T22:11:52.234Z,88.04
2023-03-11T22:14:18.687Z,88.23
2023-03-11T22:16:45.359Z,87.63
2023-03-11T22:19:11.968Z,87.93
2023-03-11T22:21:38.474Z,87.90
2023-03-11T22:24:05.065Z,87.47
2023-03-11T22:26:31.483Z,87.93
2023-03-11T22:28:57.862Z,87.98
2023-03-11T22:31:25.028Z,87.78
2023-03-11T22:33:51.582Z,87.27
2023-03-11T22:36:18.280Z,87.51
2023-03-11T22:38:44.977Z,87.56
2023-03-11T22:41:12.881Z,87.87
2023-03-11T22:43:40.094Z,87.53
2023-03-11T22:46:07.040Z,86.62
2023-03-11T22:48:34.280Z,85.75
2023-03-11T22:51:00.786Z,81.06
2023-03-11T22:53:27.192Z,80.12
2023-03-11T22:55:53.626Z,77.50
2023-03-11T22:58:20.398Z,73.09
2023-03-11T23:00:47.012Z,73.03
2023-03-11T23:03:13.656Z,75.70
2023-03-11T23:05:43.221Z,76.32
2023-03-11T23:08:11.918Z,77.86
2023-03-11T23:10:44.263Z,76.89
2023-03-11T23:13:11.313Z,71.75
2023-03-11T23:15:41.277Z,71.50
2023-03-11T23:18:08.425Z,69.26
2023-03-11T23:20:36.838Z,69.83
2023-03-11T23:23:04.525Z,69.06
2023-03-11T23:25:34.919Z,68.64
2023-03-11T23:28:05.698Z,68.33
2023-03-11T23:30:32.303Z,69.33
2023-03-11T23:32:59.166Z,69.39
2023-03-11T23:35:25.612Z,68.05
2023-03-11T23:37:52.000Z,68.32
2023-03-11T23:40:18.805Z,69.40
2023-03-11T23:42:45.235Z,69.60
2023-03-11T23:45:12.083Z,68.62
2023-03-11T23:47:38.451Z,68.06
2023-03-11T23:50:05.289Z,68.15
2023-03-11T23:52:31.733Z,69.69
2023-03-11T23:54:58.121Z,66.62
2023-03-11T23:57:24.519Z,67.38
2023-03-11T23:59:50.958Z,69.37
